createdAt,value
2019-06-15T00:01:00.674Z,99.90
2019-06-15T00:03:28.097Z,99.90
2019-06-15T00:05:55.571Z,99.90
2019-06-15T00:08:23.149Z,99.90
2019-06-15T00:10:58.636Z,99.90
2019-06-15T00:13:26.279Z,99.90
2019-06-15T00:15:54.761Z,99.90
2019-06-15T00:18:22.398Z,99.90
2019-06-15T00:20:49.897Z,99.90
2019-06-15T00:23:18.366Z,99.90
2019-06-15T00:25:45.898Z,99.90
2019-06-15T00:28:13.366Z,99.90
2019-06-15T00:30:40.854Z,99.90
2019-06-15T00:33:08.477Z,99.90
2019-06-15T00:35:36.115Z,99.90
2019-06-15T00:38:03.722Z,99.90
2019-06-15T00:40:32.247Z,99.90
2019-06-15T00:42:59.794Z,99.90
2019-06-15T00:45:29.324Z,99.90
2019-06-15T00:47:56.675Z,99.90
2019-06-15T00:50:24.362Z,99.90
2019-06-15T00:52:51.806Z,99.90
2019-06-15T00:55:19.239Z,99.90
2019-06-15T00:57:46.728Z,99.90
2019-06-15T01:00:14.907Z,99.90
2019-06-15T01:02:42.676Z,99.90
2019-06-15T01:05:10.240Z,99.90
2019-06-15T01:07:37.798Z,99.90
2019-06-15T01:10:06.473Z,99.90
2019-06-15T01:12:34.401Z,99.90
2019-06-15T01:15:02.075Z,99.90
2019-06-15T01:17:29.751Z,99.90
2019-06-15T01:19:57.632Z,99.90
2019-06-15T01:22:28.268Z,99.90
2019-06-15T01:25:05.126Z,99.90
2019-06-15T01:27:27.491Z,99.90
2019-06-15T01:29:55.120Z,99.90
2019-06-15T01:32:22.647Z,99.90
2019-06-15T01:34:50.345Z,99.90
2019-06-15T01:37:17.979Z,99.90
2019-06-15T01:39:56.827Z,99.90
2019-06-15T01:42:33.360Z,99.90
2019-06-15T01:45:01.602Z,99.90
2019-06-15T01:47:29.545Z,99.90
2019-06-15T01:50:01.651Z,99.90
2019-06-15T01:52:32.333Z,99.90
2019-06-15T01:55:04.507Z,99.90
2019-06-15T01:57:36.119Z,99.90
2019-06-15T02:00:06.751Z,99.90
2019-06-15T02:02:37.343Z,99.90
2019-06-15T02:05:06.333Z,99.90
2019-06-15T02:07:37.285Z,99.90
2019-06-15T02:10:06.457Z,99.90
2019-06-15T02:12:34.229Z,99.90
2019-06-15T02:15:02.076Z,99.90
2019-06-15T02:17:29.779Z,99.90
2019-06-15T02:20:05.066Z,99.90
2019-06-15T02:22:33.160Z,99.90
2019-06-15T02:25:03.199Z,99.90
2019-06-15T02:27:33.845Z,99.90
2019-06-15T02:30:10.601Z,99.90
2019-06-15T02:32:38.484Z,99.90
2019-06-15T02:35:09.224Z,99.90
2019-06-15T02:37:48.506Z,99.90
2019-06-15T02:40:18.119Z,99.90
2019-06-15T02:42:45.820Z,99.90
2019-06-15T02:45:14.107Z,99.90
2019-06-15T02:47:41.992Z,99.90
2019-06-15T02:50:10.362Z,99.90
2019-06-15T02:52:41.645Z,99.90
2019-06-15T02:55:16.144Z,99.90
2019-06-15T02:57:54.619Z,99.90
2019-06-15T03:00:42.456Z,99.90
2019-06-15T03:03:10.315Z,99.90
2019-06-15T03:05:40.672Z,99.90
2019-06-15T03:08:17.525Z,99.90
2019-06-15T03:10:46.773Z,99.90
2019-06-15T03:13:18.540Z,99.90
2019-06-15T03:15:52.771Z,99.90
2019-06-15T03:18:20.963Z,99.90
2019-06-15T03:20:48.810Z,99.90
2019-06-15T03:23:19.306Z,99.90
2019-06-15T03:26:04.709Z,99.90
2019-06-15T03:28:30.044Z,99.90
2019-06-15T03:30:58.323Z,99.90
2019-06-15T03:33:32.220Z,99.90
2019-06-15T03:36:14.032Z,99.90
2019-06-15T03:38:41.761Z,99.90
2019-06-15T03:41:09.495Z,99.90
2019-06-15T03:43:37.389Z,99.90
2019-06-15T03:46:06.309Z,99.90
2019-06-15T03:48:37.344Z,99.90
2019-06-15T03:51:05.196Z,99.90
2019-06-15T03:53:33.385Z,99.90
2019-06-15T03:56:01.389Z,99.90
2019-06-15T03:58:29.275Z,99.90
2019-06-15T04:01:14.374Z,99.90
2019-06-15T04:03:42.476Z,99.90
2019-06-15T04:06:10.396Z,99.90
2019-06-15T04:08:38.493Z,99.90
2019-06-15T04:11:06.818Z,99.90
2019-06-15T04:13:38.206Z,99.90
2019-06-15T04:16:14.789Z,99.90
2019-06-15T04:18:42.583Z,99.90
2019-06-15T04:21:13.646Z,99.90
2019-06-15T04:23:41.728Z,99.90
2019-06-15T04:26:09.630Z,99.90
2019-06-15T04:28:37.653Z,99.90
2019-06-15T04:31:08.220Z,99.90
2019-06-15T04:33:35.683Z,99.90
2019-06-15T04:36:03.905Z,99.90
2019-06-15T04:38:31.616Z,99.90
2019-06-15T04:41:01.622Z,99.90
2019-06-15T04:43:29.515Z,99.90
2019-06-15T04:46:00.813Z,99.90
2019-06-15T04:48:28.770Z,99.90
2019-06-15T04:50:56.435Z,99.90
2019-06-15T04:53:26.328Z,99.90
2019-06-15T04:55:54.209Z,99.90
2019-06-15T04:58:22.069Z,99.90
2019-06-15T05:00:49.716Z,99.90
2019-06-15T05:03:18.350Z,99.90
2019-06-15T05:05:52.777Z,99.90
2019-06-15T05:08:21.506Z,99.90
2019-06-15T05:10:49.821Z,99.90
2019-06-15T05:13:29.470Z,99.90
2019-06-15T05:15:59.641Z,98.70
2019-06-15T05:18:27.825Z,97.80
2019-06-15T05:20:56.400Z,95.80
2019-06-15T05:23:25.104Z,95.20
2019-06-15T05:25:53.708Z,95.00
2019-06-15T05:28:24.544Z,93.90
2019-06-15T05:30:53.412Z,92.20
2019-06-15T05:33:28.806Z,90.30
2019-06-15T05:35:58.145Z,91.00
2019-06-15T05:38:26.108Z,89.80
2019-06-15T05:40:54.052Z,88.20
2019-06-15T05:43:22.274Z,88.50
2019-06-15T05:45:49.950Z,87.60
2019-06-15T05:48:18.868Z,88.10
2019-06-15T05:50:46.539Z,89.70
2019-06-15T05:53:14.535Z,88.60
2019-06-15T05:55:44.773Z,89.80
2019-06-15T05:58:12.493Z,87.90
2019-06-15T06:00:40.029Z,90.00
2019-06-15T06:03:07.685Z,87.80
2019-06-15T06:05:35.131Z,90.90
2019-06-15T06:08:02.622Z,91.30
2019-06-15T06:10:30.103Z,91.40
2019-06-15T06:12:57.596Z,91.40
2019-06-15T06:15:26.905Z,91.30
2019-06-15T06:17:54.562Z,91.90
2019-06-15T06:20:28.424Z,93.10
2019-06-15T06:22:57.997Z,93.70
2019-06-15T06:25:25.455Z,93.80
2019-06-15T06:27:58.280Z,94.40
2019-06-15T06:30:25.762Z,94.50
2019-06-15T06:32:53.338Z,94.90
2019-06-15T06:35:26.028Z,95.10
2019-06-15T06:37:54.494Z,95.90
2019-06-15T06:40:22.071Z,94.60
2019-06-15T06:42:49.575Z,94.50
2019-06-15T06:45:17.075Z,94.40
2019-06-15T06:47:44.623Z,94.40
2019-06-15T06:50:12.350Z,93.30
2019-06-15T06:52:39.844Z,93.90
2019-06-15T06:55:08.046Z,95.50
2019-06-15T06:57:35.551Z,94.20
2019-06-15T07:00:03.344Z,94.30
2019-06-15T07:02:35.396Z,95.50
2019-06-15T07:05:04.001Z,94.10
2019-06-15T07:07:34.135Z,94.20
2019-06-15T07:10:01.629Z,93.70
2019-06-15T07:12:29.144Z,94.10
2019-06-15T07:14:56.593Z,94.40
2019-06-15T07:17:24.153Z,94.60
2019-06-15T07:19:51.896Z,94.80
2019-06-15T07:22:19.420Z,94.20
2019-06-15T07:24:47.019Z,93.40
2019-06-15T07:27:14.545Z,93.20
2019-06-15T07:29:42.008Z,93.60
2019-06-15T07:32:09.519Z,93.20
2019-06-15T07:34:36.876Z,92.60
2019-06-15T07:37:04.527Z,92.80
2019-06-15T07:39:31.938Z,92.50
2019-06-15T07:41:59.434Z,91.70
2019-06-15T07:44:27.114Z,91.40
2019-06-15T07:46:58.619Z,90.40
2019-06-15T07:49:26.444Z,90.70
2019-06-15T07:51:53.996Z,90.10
2019-06-15T07:54:21.514Z,91.40
2019-06-15T07:56:49.004Z,87.30
2019-06-15T07:59:17.597Z,91.60
2019-06-15T08:01:53.147Z,91.70
2019-06-15T08:04:31.175Z,87.30
2019-06-15T08:06:57.214Z,86.80
2019-06-15T08:09:39.242Z,87.60
2019-06-15T08:12:04.395Z,88.90
2019-06-15T08:14:32.700Z,87.20
2019-06-15T08:17:50.687Z,83.20
2019-06-15T08:20:29.442Z,89.10
2019-06-15T08:22:56.994Z,82.40
2019-06-15T08:28:11.314Z,86.80
2019-06-15T08:30:44.808Z,83.40
2019-06-15T08:33:17.539Z,85.10
2019-06-15T08:35:48.645Z,83.60
2019-06-15T08:38:19.238Z,84.40
2019-06-15T08:41:26.884Z,82.70
2019-06-15T08:46:45.894Z,82.70
2019-06-15T08:49:15.653Z,85.60
2019-06-15T08:51:46.046Z,82.00
2019-06-15T08:54:13.639Z,83.10
2019-06-15T08:56:43.343Z,83.00
2019-06-15T08:59:11.010Z,83.90
2019-06-15T09:01:41.446Z,83.70
2019-06-15T09:04:16.380Z,84.20
2019-06-15T09:06:51.317Z,85.60
2019-06-15T09:09:29.702Z,84.20
2019-06-15T09:11:58.016Z,85.40
2019-06-15T09:14:31.923Z,83.70
2019-06-15T09:16:59.341Z,81.90
2019-06-15T09:19:28.920Z,84.00
2019-06-15T09:21:56.391Z,82.10
2019-06-15T09:24:23.892Z,82.80
2019-06-15T09:26:51.509Z,83.70
2019-06-15T09:29:18.963Z,86.30
2019-06-15T09:31:46.687Z,84.20
2019-06-15T09:34:18.884Z,85.20
2019-06-15T09:36:43.515Z,84.60
2019-06-15T09:39:11.856Z,82.70
2019-06-15T09:41:40.248Z,83.20
2019-06-15T09:44:07.775Z,82.30
2019-06-15T09:46:35.244Z,84.40
2019-06-15T09:49:03.012Z,84.70
2019-06-15T09:51:30.462Z,83.90
2019-06-15T09:53:57.889Z,84.60
2019-06-15T09:56:25.354Z,84.60
2019-06-15T09:58:52.968Z,83.70
2019-06-15T10:01:20.406Z,85.90
2019-06-15T10:03:48.060Z,82.90
2019-06-15T10:06:15.551Z,82.90
2019-06-15T10:08:43.032Z,82.20
2019-06-15T10:11:10.563Z,80.30
2019-06-15T10:13:38.307Z,80.10
2019-06-15T10:16:05.909Z,81.40
2019-06-15T10:18:38.653Z,80.70
2019-06-15T10:21:04.860Z,84.00
2019-06-15T10:23:32.300Z,80.00
2019-06-15T10:25:59.755Z,79.50
2019-06-15T10:28:27.244Z,82.80
2019-06-15T10:30:55.094Z,80.00
2019-06-15T10:33:23.203Z,78.90
2019-06-15T10:35:54.485Z,81.00
2019-06-15T10:38:22.280Z,82.00
2019-06-15T10:40:50.621Z,78.90
2019-06-15T10:43:19.482Z,77.30
2019-06-15T10:45:47.468Z,79.40
2019-06-15T10:48:15.607Z,77.10
2019-06-15T10:50:43.398Z,78.00
2019-06-15T10:53:11.381Z,78.80
2019-06-15T10:55:39.195Z,78.60
2019-06-15T10:58:07.634Z,77.90
2019-06-15T11:00:36.058Z,80.00
2019-06-15T11:03:04.321Z,76.70
2019-06-15T11:05:36.422Z,75.90
2019-06-15T11:08:04.130Z,77.30
2019-06-15T11:11:02.299Z,77.80
2019-06-15T11:13:30.191Z,75.40
2019-06-15T11:15:57.964Z,77.70
2019-06-15T11:18:27.569Z,75.70
2019-06-15T11:20:58.960Z,78.20
2019-06-15T11:23:26.551Z,77.50
2019-06-15T11:25:56.658Z,74.40
2019-06-15T11:28:24.683Z,76.40
2019-06-15T11:30:55.724Z,72.60
2019-06-15T11:33:26.211Z,74.70
2019-06-15T11:35:53.992Z,77.70
2019-06-15T11:38:21.872Z,73.80
2019-06-15T11:40:49.653Z,74.30
2019-06-15T11:43:17.241Z,74.60
2019-06-15T11:45:45.128Z,75.60
2019-06-15T11:48:12.889Z,73.90
2019-06-15T11:54:21.674Z,76.10
2019-06-15T11:57:21.777Z,73.70
2019-06-15T11:59:54.406Z,74.90
2019-06-15T12:02:37.582Z,73.00
2019-06-15T12:05:43.366Z,72.50
2019-06-15T12:08:11.346Z,74.30
2019-06-15T12:10:39.133Z,72.60
2019-06-15T12:13:07.263Z,72.70
2019-06-15T12:15:37.866Z,72.90
2019-06-15T12:18:12.377Z,72.60
2019-06-15T12:20:50.962Z,72.00
2019-06-15T12:23:41.128Z,74.10
2019-06-15T12:26:09.930Z,72.90
2019-06-15T12:29:21.588Z,73.10
2019-06-15T12:31:49.537Z,71.10
2019-06-15T12:34:17.302Z,70.00
2019-06-15T12:36:50.190Z,71.50
2019-06-15T12:39:18.887Z,71.00
2019-06-15T12:45:15.754Z,68.20
2019-06-15T12:47:43.675Z,68.40
2019-06-15T12:50:56.534Z,69.60
2019-06-15T12:56:52.993Z,67.80
2019-06-15T12:59:44.329Z,69.20
2019-06-15T13:02:12.501Z,69.50
2019-06-15T13:04:46.204Z,67.70
2019-06-15T13:07:34.371Z,66.50
2019-06-15T13:13:13.987Z,65.70
2019-06-15T13:15:44.836Z,66.30
2019-06-15T13:18:14.636Z,67.10
2019-06-15T13:20:55.626Z,64.70
2019-06-15T13:23:23.890Z,63.70
2019-06-15T13:26:59.173Z,63.60
2019-06-15T13:33:15.554Z,63.20
2019-06-15T13:35:56.476Z,61.20
2019-06-15T13:38:43.346Z,63.90
2019-06-15T13:45:09.309Z,65.40
2019-06-15T13:48:01.615Z,61.20
2019-06-15T13:51:05.532Z,61.60
2019-06-15T13:58:26.681Z,62.20
